Ashburn, Georgia
Current Conditions -  °F | °C
As of 10:15 AM on Thursday 18 Dec 2014 (Local Time) from KCKF Reporting Station
Clear Clear  
Wind Chill: 46°   Ceiling: Unl
Heat Index: 48°   Visibility: 10mi
Dew Point: 37°   Wind: 5mph
Humidity: 67%   Direction: 350°N
Pressure: 30.22"   Gusts: NA
Location:  31.71°N, 83.65°W
Report Text: KCKF 181515Z AUTO 35004KT 10SM CLR 09/03 A3022 RMK AO2 T00880029
Loading
Personal Weather Stations






























Interactive Weather Map New forecast layout! Learn more

10-Day Weather Forecast

Advertisements
Track Severe Weather on mobile